Time;durP1;ratioP1;P1;durP2;ratioP2;P2;SDS_P1;SDS_P2;PMS_P1;PMS_P2;Temp;Humidity;BMP_temperature;BMP_pressure;BME280_temperature;BME280_humidity;BME280_pressure;Samples;Min_cycle;Max_cycle;Signal;HPM_P1;HPM_P2
2023/03/19 00:00:16;;;;;;;4.47;2.07;;;;;;;-145.69;100.00;52266.16;5121315;28;20193;-82
2023/03/19 00:02:48;;;;;;;3.73;1.20;;;;;;;-145.69;100.00;52244.38;5121102;28;20655;-82
2023/03/19 00:05:16;;;;;;;3.10;1.00;;;;;;;-145.69;100.00;52283.97;5121972;28;20256;-82
2023/03/19 00:07:46;;;;;;;3.27;1.30;;;;;;;-145.69;99.88;52264.16;5102838;28;20399;-82
2023/03/19 00:10:12;;;;;;;3.73;1.33;;;;;;;-145.69;100.00;52254.28;5121331;28;20198;-82
2023/03/19 00:12:44;;;;;;;1.93;1.07;;;;;;;-145.69;91.14;52262.19;5120911;28;20655;-81
2023/03/19 00:15:13;;;;;;;4.63;1.30;;;;;;;-145.69;81.79;52252.28;5120741;28;20209;-82
2023/03/19 00:17:40;;;;;;;5.23;1.07;;;;;;;-145.69;86.03;52258.22;5120608;28;20593;-83
2023/03/19 00:20:09;;;;;;;2.50;1.20;;;;;;;-145.69;91.96;52238.44;5120285;28;20280;-83
2023/03/19 00:22:40;;;;;;;3.43;1.30;;;;;;;-145.69;77.49;52238.44;5115433;28;20306;-83
2023/03/19 00:25:08;;;;;;;2.23;1.20;;;;;;;-145.69;78.31;52256.25;5115284;28;20189;-83
2023/03/19 00:27:36;;;;;;;3.57;1.60;;;;;;;-145.69;74.04;52254.28;5117888;28;20656;-83
2023/03/19 00:30:03;;;;;;;3.07;1.60;;;;;;;-145.69;73.27;52264.16;5116853;28;20644;-83
2023/03/19 00:32:32;;;;;;;3.23;1.57;;;;;;;-145.69;68.97;52232.50;5115992;28;20262;-82
2023/03/19 00:34:59;;;;;;;4.57;1.27;;;;;;;-145.69;68.59;52210.72;5116055;28;20193;-83
2023/03/19 00:37:26;;;;;;;1.97;1.20;;;;;;;-145.69;66.43;52218.63;5116299;28;20643;-83
2023/03/19 00:39:54;;;;;;;1.97;1.13;;;;;;;-145.69;67.18;52210.72;5116303;28;20193;-83
2023/03/19 00:42:24;;;;;;;4.60;1.40;;;;;;;-145.69;57.72;52230.50;5118396;28;20587;-83
2023/03/19 00:44:50;;;;;;;5.93;1.43;;;;;;;-145.69;60.01;52202.78;5118353;28;20201;-82
2023/03/19 00:47:17;;;;;;;6.33;1.90;;;;;;;-145.69;58.05;52196.84;5118394;28;20201;-83
2023/03/19 00:49:45;;;;;;;3.47;1.50;;;;;;;-145.69;57.51;52230.50;5118479;28;20202;-82
2023/03/19 00:52:18;;;;;;;4.03;1.80;;;;;;;-145.69;58.31;52210.72;5114478;28;20202;-83
2023/03/19 00:54:44;;;;;;;6.27;1.80;;;;;;;-145.69;59.21;52206.75;5118298;28;20201;-83
2023/03/19 00:57:12;;;;;;;5.43;1.90;;;;;;;-145.69;58.40;52208.72;5118885;28;20671;-83
2023/03/19 00:59:39;;;;;;;5.47;1.63;;;;;;;-145.69;61.41;52246.34;5109625;28;20190;-83
2023/03/19 01:02:06;;;;;;;4.27;1.60;;;;;;;-145.69;61.40;52226.53;5106140;28;20225;-83
2023/03/19 01:04:32;;;;;;;5.83;1.80;;;;;;;-145.69;68.69;52202.78;5117592;28;20190;-83
2023/03/19 01:07:05;;;;;;;5.80;2.00;;;;;;;-145.69;72.51;52222.59;5117960;28;20204;-82
2023/03/19 01:09:32;;;;;;;4.40;1.63;;;;;;;-145.69;75.82;52208.72;5119273;28;20548;-83
2023/03/19 01:12:03;;;;;;;3.97;1.90;;;;;;;-145.69;80.22;52222.59;5117285;28;20215;-83
2023/03/19 01:14:31;;;;;;;6.37;2.23;;;;;;;-145.69;95.55;52242.38;5120258;28;20201;-83
2023/03/19 01:17:00;;;;;;;4.27;1.67;;;;;;;-145.69;100.00;52214.66;5117990;28;20201;-81
2023/03/19 01:19:26;;;;;;;7.10;2.37;;;;;;;-145.69;100.00;52218.63;5116530;28;20224;-81
2023/03/19 01:21:53;;;;;;;5.80;2.80;;;;;;;-145.69;100.00;52256.25;5117079;28;20230;-81
2023/03/19 01:24:23;;;;;;;6.27;2.10;;;;;;;-145.69;100.00;52248.34;5118707;28;20200;-81
2023/03/19 01:26:50;;;;;;;4.07;1.80;;;;;;;-145.69;100.00;52246.34;5118001;28;20193;-82
2023/03/19 01:29:17;;;;;;;7.80;1.80;;;;;;;-145.69;100.00;52242.38;5116658;28;20602;-81
2023/03/19 01:31:45;;;;;;;6.00;2.20;;;;;;;-145.69;100.00;52234.47;5114641;28;20583;-81
2023/03/19 01:34:11;;;;;;;5.17;2.27;;;;;;;-145.69;100.00;52234.47;5114554;28;20556;-82
2023/03/19 01:36:38;;;;;;;6.83;2.23;;;;;;;-145.69;100.00;52282.00;5114491;28;20197;-82
2023/03/19 01:39:10;;;;;;;5.70;2.20;;;;;;;-145.69;100.00;52248.34;5114859;28;20201;-82
2023/03/19 01:41:40;;;;;;;7.50;2.53;;;;;;;-145.69;100.00;52234.47;5115102;28;20237;-81
2023/03/19 01:44:28;;;;;;;13.90;2.93;;;;;;;-145.69;100.00;52266.16;5115582;28;20253;-81
2023/03/19 01:47:02;;;;;;;12.93;3.07;;;;;;;-145.69;100.00;52262.19;5102186;28;20890;-82
2023/03/19 01:49:30;;;;;;;7.68;3.17;;;;;;;-145.69;100.00;52250.31;5114965;28;20445;-82
2023/03/19 01:51:59;;;;;;;6.00;3.00;;;;;;;-145.69;100.00;52250.31;5116138;28;20205;-82
2023/03/19 01:54:27;;;;;;;8.73;2.50;;;;;;;-145.69;100.00;52305.75;5117614;28;20197;-82
2023/03/19 01:56:59;;;;;;;6.37;2.60;;;;;;;-145.69;100.00;52254.28;5117096;28;20229;-82
2023/03/19 01:59:31;;;;;;;7.77;3.40;;;;;;;-145.69;100.00;52280.00;5116740;28;20556;-81
2023/03/19 02:02:03;;;;;;;9.60;3.47;;;;;;;-145.69;100.00;52270.13;5117087;28;20312;-82
2023/03/19 02:04:31;;;;;;;6.40;2.43;;;;;;;-145.69;100.00;52268.13;5098284;28;20222;-82
2023/03/19 02:07:00;;;;;;;5.57;2.20;;;;;;;-145.69;100.00;52270.13;5116512;28;20198;-81
2023/03/19 02:09:28;;;;;;;7.30;3.00;;;;;;;-145.69;100.00;52274.06;5116733;28;20659;-82
2023/03/19 02:11:57;;;;;;;4.93;2.37;;;;;;;-145.69;100.00;52278.03;5116170;28;20395;-82
2023/03/19 02:14:29;;;;;;;5.27;2.60;;;;;;;-145.69;100.00;52248.34;5116413;28;20297;-82
2023/03/19 02:16:56;;;;;;;5.77;2.73;;;;;;;-145.69;100.00;52303.78;5116103;28;20190;-82
2023/03/19 02:19:31;;;;;;;7.67;2.77;;;;;;;-145.69;100.00;52274.06;5116793;28;20205;-82
2023/03/19 02:22:00;;;;;;;9.63;2.80;;;;;;;-145.69;100.00;52280.00;5116798;28;20702;-82
2023/03/19 02:24:32;;;;;;;9.77;2.80;;;;;;;-145.69;100.00;52276.06;5117207;28;20280;-81
2023/03/19 02:27:00;;;;;;;6.93;2.70;;;;;;;-145.69;100.00;52283.97;5096842;28;20667;-82
2023/03/19 02:29:27;;;;;;;7.67;2.30;;;;;;;-145.69;100.00;52278.03;5097144;28;20198;-82
2023/03/19 02:31:53;;;;;;;7.07;2.97;;;;;;;-145.69;100.00;52297.84;5108204;28;20237;-81
2023/03/19 02:34:44;;;;;;;8.53;2.70;;;;;;;-145.69;100.00;52307.75;5117239;28;20564;-80
2023/03/19 02:37:19;;;;;;;10.87;3.00;;;;;;;-145.69;100.00;52293.88;5117168;28;20225;-82
2023/03/19 02:39:56;;;;;;;11.77;2.80;;;;;;;-145.69;100.00;52280.00;5117743;28;20205;-82
2023/03/19 02:42:27;;;;;;;7.73;2.87;;;;;;;-145.69;100.00;52305.75;5118271;28;20266;-82
2023/03/19 02:44:56;;;;;;;8.63;3.20;;;;;;;-145.69;100.00;52291.91;5118300;28;20224;-81
2023/03/19 02:47:24;;;;;;;6.97;2.70;;;;;;;-145.69;100.00;52254.28;5118205;28;20545;-82
2023/03/19 02:49:50;;;;;;;9.07;3.20;;;;;;;-145.69;100.00;52285.97;5118131;28;20234;-82
2023/03/19 02:52:18;;;;;;;11.83;2.70;;;;;;;-145.69;100.00;52317.66;5118047;28;20655;-82
2023/03/19 02:54:45;;;;;;;5.63;2.70;;;;;;;-145.69;100.00;52276.06;5118508;28;20665;-81
2023/03/19 02:57:19;;;;;;;10.50;3.30;;;;;;;-145.69;100.00;52321.59;5117846;28;20189;-82
2023/03/19 02:59:49;;;;;;;6.87;3.00;;;;;;;-145.69;100.00;52313.69;5118328;28;20355;-81
2023/03/19 03:02:16;;;;;;;7.60;2.73;;;;;;;-145.69;100.00;52311.69;5116182;28;20221;-83
2023/03/19 03:04:45;;;;;;;6.43;3.33;;;;;;;-145.69;100.00;52329.53;5117296;28;20675;-81
2023/03/19 03:07:12;;;;;;;5.60;2.70;;;;;;;-145.69;100.00;52309.72;5116955;28;20201;-81
2023/03/19 03:09:38;;;;;;;5.43;2.90;;;;;;;-145.69;100.00;52305.75;5099135;28;20201;-82
2023/03/19 03:12:06;;;;;;;5.43;2.33;;;;;;;-145.69;100.00;52274.06;5118563;28;20204;-82
2023/03/19 03:14:32;;;;;;;6.80;2.60;;;;;;;-145.69;100.00;52293.88;5117216;28;20635;-82
2023/03/19 03:17:01;;;;;;;5.33;2.63;;;;;;;-145.69;100.00;52299.81;5116487;28;20229;-82
2023/03/19 03:19:27;;;;;;;7.37;3.00;;;;;;;-145.69;100.00;52339.44;5116817;28;20212;-82
2023/03/19 03:21:57;;;;;;;7.47;3.30;;;;;;;-145.69;100.00;52280.00;5116825;28;20217;-82
2023/03/19 03:24:24;;;;;;;9.10;2.70;;;;;;;-145.69;100.00;52303.78;5116507;28;20198;-81
2023/03/19 03:26:50;;;;;;;6.30;2.70;;;;;;;-145.69;100.00;52289.91;5116400;28;20200;-81
2023/03/19 03:29:17;;;;;;;5.13;2.90;;;;;;;-145.69;100.00;52293.88;5101584;28;20652;-82
2023/03/19 03:31:44;;;;;;;8.70;2.37;;;;;;;-145.69;100.00;52335.47;5121583;28;20205;-82
2023/03/19 03:34:11;;;;;;;4.20;2.40;;;;;;;-145.69;100.00;52305.75;5121389;28;20200;-81
2023/03/19 03:36:38;;;;;;;5.90;2.60;;;;;;;-145.69;100.00;52335.47;5120948;28;20193;-82
2023/03/19 03:39:05;;;;;;;4.50;2.17;;;;;;;-145.69;100.00;52258.22;5121795;28;20703;-82
2023/03/19 03:41:31;;;;;;;6.37;2.50;;;;;;;-145.69;100.00;52278.03;5121832;28;20262;-81
2023/03/19 03:43:58;;;;;;;8.97;2.47;;;;;;;-145.69;100.00;52282.00;5121707;28;20691;-82
2023/03/19 03:46:25;;;;;;;4.37;1.87;;;;;;;-145.69;100.00;52295.84;5121727;28;20213;-82
2023/03/19 03:48:51;;;;;;;4.73;2.13;;;;;;;-145.69;100.00;52291.91;5121113;28;20198;-81
2023/03/19 03:51:22;;;;;;;5.90;2.23;;;;;;;-145.69;100.00;52301.81;5120975;28;20194;-82
2023/03/19 03:53:49;;;;;;;10.73;2.37;;;;;;;-145.69;100.00;52333.47;5122277;28;20219;-82
2023/03/19 03:56:15;;;;;;;7.83;2.53;;;;;;;-145.69;100.00;52309.72;5121547;28;20288;-81
2023/03/19 03:58:42;;;;;;;4.10;2.30;;;;;;;-145.69;100.00;52305.75;5120725;28;20213;-81
2023/03/19 04:01:15;;;;;;;11.60;2.40;;;;;;;-145.69;100.00;52285.97;5118955;28;20197;-81
2023/03/19 04:03:41;;;;;;;5.07;2.10;;;;;;;-145.69;100.00;52347.34;5119349;28;20228;-81
2023/03/19 04:06:11;;;;;;;2.67;1.90;;;;;;;-145.69;100.00;52325.56;5120703;28;20193;-82
2023/03/19 04:08:38;;;;;;;4.20;2.13;;;;;;;-145.69;100.00;52303.78;5120167;28;20296;-81
2023/03/19 04:11:09;;;;;;;9.60;2.33;;;;;;;-145.69;100.00;52270.13;5119434;28;20722;-82
2023/03/19 04:13:38;;;;;;;4.70;2.30;;;;;;;-145.69;100.00;52301.81;5101223;28;20201;-80
2023/03/19 04:16:06;;;;;;;7.27;2.23;;;;;;;-145.69;100.00;52252.28;5116313;28;20197;-81
2023/03/19 04:18:33;;;;;;;8.37;2.37;;;;;;;-145.69;100.00;52283.97;5116972;28;20204;-80
2023/03/19 04:21:00;;;;;;;7.63;2.10;;;;;;;-145.69;100.00;52325.56;5118843;28;20279;-81
2023/03/19 04:23:26;;;;;;;6.70;2.80;;;;;;;-145.69;100.00;52313.69;5118917;28;20225;-81
2023/03/19 04:25:58;;;;;;;3.17;2.37;;;;;;;-145.69;100.00;52287.94;5118588;28;20186;-81
2023/03/19 04:28:25;;;;;;;3.97;2.03;;;;;;;-145.69;100.00;52331.50;5119031;28;20205;-81
2023/03/19 04:30:51;;;;;;;5.20;2.43;;;;;;;-145.69;100.00;52333.47;5119727;28;20552;-81
2023/03/19 04:33:20;;;;;;;6.30;2.00;;;;;;;-145.69;100.00;52309.72;5119475;28;20606;-81
2023/03/19 04:35:48;;;;;;;5.20;1.93;;;;;;;-145.69;100.00;52317.66;5119611;28;20205;-82
2023/03/19 04:38:20;;;;;;;3.77;1.90;;;;;;;-145.69;100.00;52315.66;5119217;28;20200;-82
2023/03/19 04:40:47;;;;;;;5.23;2.47;;;;;;;-145.69;100.00;52289.91;5120157;28;20212;-82
2023/03/19 04:43:16;;;;;;;9.53;2.20;;;;;;;-145.69;100.00;52307.75;5120313;28;20328;-81
2023/03/19 04:45:43;;;;;;;7.53;2.70;;;;;;;-145.69;100.00;52303.78;5120862;28;20197;-81
2023/03/19 04:48:09;;;;;;;12.77;2.87;;;;;;;-145.69;100.00;52297.84;5120151;28;20194;-82
2023/03/19 04:50:36;;;;;;;6.27;2.37;;;;;;;-145.69;100.00;52315.66;5120818;28;20190;-82
2023/03/19 04:53:03;;;;;;;3.30;2.00;;;;;;;-145.69;100.00;52329.53;5120843;28;20555;-81
2023/03/19 04:55:30;;;;;;;4.27;2.40;;;;;;;-145.69;100.00;52321.59;5120801;28;20200;-81
2023/03/19 04:57:57;;;;;;;5.03;2.50;;;;;;;-145.69;100.00;52291.91;5120190;28;20445;-82
2023/03/19 05:00:25;;;;;;;3.80;2.07;;;;;;;-145.69;100.00;52315.66;5120708;28;20284;-81
2023/03/19 05:02:51;;;;;;;6.83;2.33;;;;;;;-145.69;100.00;52299.81;5120755;28;20222;-81
2023/03/19 05:05:18;;;;;;;9.37;2.60;;;;;;;-145.69;100.00;52329.53;5120459;28;20208;-81
2023/03/19 05:07:45;;;;;;;5.73;2.90;;;;;;;-145.69;100.00;52258.22;5119977;28;20202;-81
2023/03/19 05:10:12;;;;;;;5.67;2.37;;;;;;;-145.69;100.00;52321.59;5120118;28;20239;-81
2023/03/19 05:12:40;;;;;;;4.67;2.17;;;;;;;-145.69;100.00;52317.66;5119525;28;20198;-81
2023/03/19 05:15:07;;;;;;;5.50;2.40;;;;;;;-145.69;100.00;52291.91;5118854;28;20197;-81
2023/03/19 05:17:36;;;;;;;5.17;2.73;;;;;;;-145.69;100.00;52325.56;5116791;28;20276;-81
2023/03/19 05:20:03;;;;;;;9.00;2.50;;;;;;;-145.69;100.00;52325.56;5118998;28;20193;-81
2023/03/19 05:22:30;;;;;;;5.30;2.00;;;;;;;-145.69;100.00;52282.00;5118840;28;20217;-81
2023/03/19 05:24:58;;;;;;;7.97;2.30;;;;;;;-145.69;100.00;52295.84;5117986;28;20209;-82
2023/03/19 05:27:25;;;;;;;9.77;2.17;;;;;;;-145.69;100.00;52309.72;5119468;28;20232;-82
2023/03/19 05:29:54;;;;;;;4.47;2.03;;;;;;;-145.69;100.00;52297.84;5119420;28;20198;-81
2023/03/19 05:32:21;;;;;;;6.03;2.10;;;;;;;-145.69;100.00;52313.69;5119039;28;20200;-81
2023/03/19 05:34:52;;;;;;;4.70;2.03;;;;;;;-145.69;100.00;52317.66;5118753;28;20783;-82
2023/03/19 05:37:18;;;;;;;6.17;2.10;;;;;;;-145.69;100.00;52319.63;5118900;28;20224;-81
2023/03/19 05:39:44;;;;;;;5.97;1.80;;;;;;;-145.69;100.00;52297.84;5119605;28;20623;-80
2023/03/19 05:42:11;;;;;;;9.47;2.30;;;;;;;-145.69;100.00;52289.91;5117686;28;20221;-80
2023/03/19 05:44:38;;;;;;;6.70;2.20;;;;;;;-145.69;100.00;52341.41;5118237;28;20220;-81
2023/03/19 05:47:05;;;;;;;5.03;2.17;;;;;;;-145.69;100.00;52317.66;5118039;28;20551;-81
2023/03/19 05:49:32;;;;;;;7.03;2.10;;;;;;;-145.69;100.00;52295.84;5118307;28;20259;-81
2023/03/19 05:52:00;;;;;;;4.27;2.10;;;;;;;-145.69;100.00;52335.47;5117166;28;20585;-81
2023/03/19 05:54:27;;;;;;;10.00;2.40;;;;;;;-145.69;100.00;52305.75;5118257;28;20202;-80
2023/03/19 05:56:53;;;;;;;6.57;1.97;;;;;;;-145.69;100.00;52325.56;5115732;28;20280;-80
2023/03/19 05:59:20;;;;;;;14.00;2.90;;;;;;;-145.69;100.00;52325.56;5114088;28;20212;-81
2023/03/19 06:01:47;;;;;;;5.13;1.93;;;;;;;-145.69;100.00;52293.88;5113817;28;20236;-80
2023/03/19 06:04:13;;;;;;;3.90;1.83;;;;;;;-145.69;100.00;52329.53;5114187;28;20235;-80
2023/03/19 06:06:40;;;;;;;3.57;2.10;;;;;;;-145.69;100.00;52315.66;5114062;28;20199;-80
2023/03/19 06:09:14;;;;;;;5.87;1.80;;;;;;;-145.69;100.00;52335.47;5114101;28;20286;-81
2023/03/19 06:11:41;;;;;;;7.03;2.00;;;;;;;-145.69;100.00;52305.75;5115635;28;20217;-81
2023/03/19 06:14:08;;;;;;;4.50;2.10;;;;;;;-145.69;100.00;52321.59;5115798;28;20256;-81
2023/03/19 06:16:36;;;;;;;13.73;3.10;;;;;;;-145.69;100.00;52337.44;5115912;28;20659;-81
2023/03/19 06:19:02;;;;;;;3.60;1.70;;;;;;;-145.69;100.00;52285.97;5115936;28;20201;-81
2023/03/19 06:21:30;;;;;;;5.80;1.73;;;;;;;-145.69;100.00;52329.53;5115984;28;20194;-80
2023/03/19 06:23:57;;;;;;;6.83;2.00;;;;;;;-145.69;100.00;52315.66;5116656;28;20229;-80
2023/03/19 06:26:26;;;;;;;4.70;1.97;;;;;;;-145.69;100.00;52311.69;5117594;28;20201;-81
2023/03/19 06:28:53;;;;;;;4.47;1.70;;;;;;;-145.69;100.00;52311.69;5116620;28;20193;-80
2023/03/19 06:31:20;;;;;;;7.70;1.73;;;;;;;-145.69;100.00;52317.66;5116892;28;20695;-80
2023/03/19 06:33:47;;;;;;;9.37;2.30;;;;;;;-145.69;100.00;52323.59;5116593;28;20212;-80
2023/03/19 06:36:14;;;;;;;2.67;1.90;;;;;;;-145.69;100.00;52309.72;5116358;28;20221;-80
2023/03/19 06:38:40;;;;;;;8.40;1.73;;;;;;;-145.69;100.00;52305.75;5115354;28;20201;-80
2023/03/19 06:41:07;;;;;;;4.73;1.60;;;;;;;-145.69;100.00;52313.69;5116004;28;20203;-80
2023/03/19 06:43:35;;;;;;;6.13;1.70;;;;;;;-145.69;100.00;52309.72;5117034;28;20658;-80
2023/03/19 06:46:05;;;;;;;4.27;1.80;;;;;;;-145.69;100.00;52351.31;5116942;28;20652;-80
2023/03/19 06:48:32;;;;;;;6.23;1.60;;;;;;;-145.69;100.00;52333.47;5118260;28;20221;-80
2023/03/19 06:51:02;;;;;;;4.93;1.70;;;;;;;-145.69;100.00;52266.16;5116918;28;20197;-81
2023/03/19 06:53:28;;;;;;;4.27;1.77;;;;;;;-145.69;100.00;52256.25;5117382;28;20202;-81
2023/03/19 06:55:55;;;;;;;8.00;1.77;;;;;;;-145.69;100.00;52282.00;5117615;28;20209;-81
2023/03/19 06:58:22;;;;;;;3.47;1.57;;;;;;;-145.69;100.00;52305.75;5116042;28;20682;-81
2023/03/19 07:00:49;;;;;;;3.57;1.43;;;;;;;-145.69;100.00;52274.06;5115420;28;20193;-81
2023/03/19 07:03:16;;;;;;;5.67;1.50;;;;;;;-145.69;100.00;52319.63;5119008;28;20244;-81
2023/03/19 07:05:42;;;;;;;4.17;1.67;;;;;;;-145.69;100.00;52303.78;5121026;28;20201;-81
2023/03/19 07:08:10;;;;;;;3.53;1.50;;;;;;;-145.69;100.00;52278.03;5121129;28;20559;-81
2023/03/19 07:10:37;;;;;;;5.27;1.57;;;;;;;-145.69;100.00;52285.97;5120694;28;20721;-83
2023/03/19 07:13:04;;;;;;;5.30;1.70;;;;;;;-145.69;100.00;52293.88;5123599;28;20190;-82
2023/03/19 07:15:31;;;;;;;4.80;2.10;;;;;;;-145.69;100.00;52287.94;5121958;28;20276;-82
2023/03/19 07:17:59;;;;;;;3.87;1.70;;;;;;;-145.69;100.00;52276.06;5123653;28;20198;-82
2023/03/19 07:20:25;;;;;;;3.60;1.73;;;;;;;-145.69;100.00;52282.00;5123766;28;20194;-82
2023/03/19 07:22:52;;;;;;;3.67;1.80;;;;;;;-145.69;100.00;52278.03;5116110;28;20210;-83
2023/03/19 07:25:19;;;;;;;6.33;1.80;;;;;;;-145.69;100.00;52301.81;5101549;28;20587;-82
2023/03/19 07:27:45;;;;;;;2.70;1.37;;;;;;;-145.69;100.00;52268.13;5134993;27;20283;-83
2023/03/19 07:30:15;;;;;;;4.53;1.33;;;;;;;-145.69;100.00;52280.00;5141893;27;20673;-81
2023/03/19 07:32:42;;;;;;;1.77;1.30;;;;;;;-145.69;100.00;52238.44;5140147;27;20204;-82
2023/03/19 07:35:11;;;;;;;2.63;1.27;;;;;;;-145.69;100.00;52262.19;5132491;27;20193;-82
2023/03/19 07:37:37;;;;;;;5.70;1.23;;;;;;;-145.69;100.00;52258.22;5121076;28;20201;-82
2023/03/19 07:40:05;;;;;;;4.47;1.33;;;;;;;-145.69;100.00;52305.75;5119855;28;20197;-82
2023/03/19 07:42:31;;;;;;;3.33;1.30;;;;;;;-145.69;100.00;52270.13;5117398;28;20225;-82
2023/03/19 07:44:57;;;;;;;2.00;1.40;;;;;;;-145.69;100.00;52258.22;5117633;28;20320;-82
2023/03/19 07:47:26;;;;;;;4.47;1.67;;;;;;;-145.69;100.00;52234.47;5118885;28;20193;-82
2023/03/19 07:49:53;;;;;;;3.57;1.57;;;;;;;-145.69;100.00;52283.97;5120655;28;20190;-81
2023/03/19 07:52:20;;;;;;;5.60;1.40;;;;;;;-145.69;100.00;52289.91;5122573;28;20635;-81
2023/03/19 07:54:48;;;;;;;4.00;1.60;;;;;;;-145.69;100.00;52266.16;5122100;28;20199;-81
2023/03/19 07:57:15;;;;;;;2.83;1.30;;;;;;;-145.69;100.00;52262.19;5121518;28;20197;-80
2023/03/19 07:59:41;;;;;;;3.20;1.47;;;;;;;-145.69;100.00;52246.34;5120963;28;20293;-81
2023/03/19 08:02:10;;;;;;;3.97;1.73;;;;;;;-145.69;100.00;52282.00;5121097;28;20212;-81
2023/03/19 08:04:37;;;;;;;3.63;1.37;;;;;;;-145.69;100.00;52266.16;5118658;28;20299;-81
2023/03/19 08:07:03;;;;;;;2.90;1.53;;;;;;;-145.69;92.37;52234.47;5119674;28;20197;-80
2023/03/19 08:09:34;;;;;;;3.13;1.27;;;;;;;-145.69;95.35;52254.28;5121196;28;20260;-81
2023/03/19 08:12:01;;;;;;;6.65;1.40;;;;;;;-145.69;91.99;52256.25;5123628;28;20197;-82
2023/03/19 08:14:30;;;;;;;3.20;1.50;;;;;;;-145.69;95.60;52248.34;5119658;28;20265;-81
2023/03/19 08:16:56;;;;;;;5.30;1.40;;;;;;;-145.69;89.87;52240.41;5121293;28;20640;-82
2023/03/19 08:19:23;;;;;;;2.77;1.53;;;;;;;-145.69;85.88;52222.59;5120889;28;20194;-82
2023/03/19 08:21:50;;;;;;;5.10;1.83;;;;;;;-145.69;84.12;52264.16;5120307;28;20197;-81
2023/03/19 08:24:16;;;;;;;3.27;1.70;;;;;;;-145.69;82.64;52244.38;5120986;28;20229;-82
2023/03/19 08:26:46;;;;;;;6.13;1.97;;;;;;;-145.69;86.73;52268.13;5120187;28;20211;-82
2023/03/19 08:29:12;;;;;;;6.13;1.80;;;;;;;-145.69;85.31;52272.09;5118390;28;20197;-81
2023/03/19 08:31:39;;;;;;;6.33;1.80;;;;;;;-145.69;86.10;52222.59;5118928;28;20247;-82
2023/03/19 08:34:09;;;;;;;7.53;1.87;;;;;;;-145.69;83.31;52254.28;5119234;28;20221;-82
2023/03/19 08:36:36;;;;;;;5.47;2.13;;;;;;;-145.69;79.93;52258.22;5119395;28;20209;-81
2023/03/19 08:39:03;;;;;;;8.88;2.13;;;;;;;-145.69;79.21;52238.44;5118240;28;20691;-79
2023/03/19 08:41:30;;;;;;;4.43;1.80;;;;;;;-145.69;81.80;52258.22;5115219;28;20201;-79
2023/03/19 08:43:58;;;;;;;2.95;1.75;;;;;;;-145.69;78.22;52220.59;5115424;28;20217;-83
2023/03/19 08:46:28;;;;;;;6.18;1.85;;;;;;;-145.69;67.73;52230.50;5118654;28;20204;-82
2023/03/19 08:48:54;;;;;;;2.45;1.55;;;;;;;-145.69;68.93;52220.59;5121834;28;20225;-81
2023/03/19 08:51:23;;;;;;;6.68;1.63;;;;;;;-145.69;65.12;52216.66;5120504;28;20253;-81
2023/03/19 08:53:52;;;;;;;3.97;2.00;;;;;;;-145.69;61.87;52220.59;5120146;28;20571;-80
2023/03/19 08:56:19;;;;;;;4.47;1.98;;;;;;;-145.69;64.80;52220.59;5119867;28;20190;-82
2023/03/19 08:58:45;;;;;;;5.32;1.80;;;;;;;-145.69;83.72;52220.59;5120202;28;20205;-82
2023/03/19 09:01:14;;;;;;;5.93;2.10;;;;;;;-145.69;65.38;52232.50;5121232;28;20200;-81
2023/03/19 09:03:44;;;;;;;8.40;1.80;;;;;;;-145.69;65.92;52202.78;5120664;28;20304;-81
2023/03/19 09:06:13;;;;;;;5.38;2.20;;;;;;;-145.69;59.59;52218.63;5118705;28;20193;-81
2023/03/19 09:08:40;;;;;;;6.97;2.38;;;;;;;-145.69;65.13;52226.53;5120982;28;20198;-81
2023/03/19 09:11:07;;;;;;;6.15;1.80;;;;;;;-145.69;65.77;52228.53;5120566;28;20228;-81
2023/03/19 09:13:36;;;;;;;5.07;1.88;;;;;;;-145.69;65.84;52212.69;5120472;28;20251;-81
2023/03/19 09:16:09;;;;;;;5.05;1.90;;;;;;;-145.69;58.91;52218.63;5110568;28;20217;-80
2023/03/19 09:18:39;;;;;;;6.10;1.50;;;;;;;-145.69;65.43;52214.66;5102098;28;20270;-80
2023/03/19 09:21:06;;;;;;;2.55;1.70;;;;;;;-145.69;70.88;52210.72;5115028;28;20229;-81
2023/03/19 09:23:32;;;;;;;5.28;1.85;;;;;;;-145.69;62.99;52202.78;5106716;28;20236;-81
2023/03/19 09:25:59;;;;;;;5.07;1.80;;;;;;;-145.69;62.53;52240.41;5099862;28;20202;-81
2023/03/19 09:28:26;;;;;;;3.08;1.60;;;;;;;-145.69;68.02;52188.91;5102075;28;20209;-82
2023/03/19 09:30:52;;;;;;;4.55;1.85;;;;;;;-145.69;68.18;52226.53;5100656;28;20259;-81
2023/03/19 09:33:20;;;;;;;3.50;2.00;;;;;;;-145.69;65.73;52202.78;5103372;28;20202;-81
2023/03/19 09:35:56;;;;;;;9.43;2.20;;;;;;;-145.69;57.80;52198.81;5121839;28;20202;-82
2023/03/19 09:38:30;;;;;;;5.28;2.05;;;;;;;-145.69;62.30;52192.88;5120866;28;20200;-82
2023/03/19 09:41:10;;;;;;;6.10;2.05;;;;;;;-145.69;59.94;52186.94;5120988;28;20600;-81
2023/03/19 09:43:55;;;;;;;6.05;2.40;;;;;;;-145.69;61.38;52214.66;5120365;28;20225;-81
2023/03/19 09:46:30;;;;;;;8.68;3.00;;;;;;;-145.69;66.67;52186.94;5120572;28;20205;-82
2023/03/19 09:49:00;;;;;;;4.65;2.67;;;;;;;-145.69;65.15;52202.78;5121330;28;20231;-81
2023/03/19 09:51:39;;;;;;;4.20;2.13;;;;;;;-145.69;64.79;52208.72;5120843;28;20196;-81
2023/03/19 09:54:08;;;;;;;4.20;2.15;;;;;;;-145.69;66.52;52202.78;5121332;28;20211;-81
2023/03/19 09:56:35;;;;;;;4.85;2.20;;;;;;;-145.69;66.78;52188.91;5120474;28;20577;-82
2023/03/19 09:59:03;;;;;;;7.82;2.38;;;;;;;-145.69;61.85;52226.53;5120744;28;20193;-82
2023/03/19 10:01:35;;;;;;;4.45;2.15;;;;;;;-145.69;57.65;52192.88;5120114;28;20201;-82
2023/03/19 10:04:44;;;;;;;4.85;2.08;;;;;;;-145.69;57.94;52198.81;5116066;28;20308;-82
2023/03/19 10:07:40;;;;;;;4.95;2.20;;;;;;;-145.69;63.50;52171.09;5105935;28;20197;-81
2023/03/19 10:10:28;;;;;;;3.90;2.20;;;;;;;-145.69;55.59;52184.97;5119938;28;20197;-82
2023/03/19 10:13:09;;;;;;;11.45;2.25;;;;;;;-145.69;62.96;52190.91;5109608;28;20655;-84
2023/03/19 10:15:38;;;;;;;4.13;1.92;;;;;;;-145.69;61.07;52181.00;5118645;28;20197;-82
2023/03/19 10:18:08;;;;;;;5.47;1.70;;;;;;;-145.69;64.64;52218.63;5116106;28;20211;-83
2023/03/19 10:20:44;;;;;;;4.13;1.83;;;;;;;-145.69;59.16;52206.75;5119352;28;20583;-82
2023/03/19 10:23:27;;;;;;;7.22;2.10;;;;;;;-145.69;61.34;52175.06;5121092;28;20223;-83
2023/03/19 10:25:56;;;;;;;5.07;1.95;;;;;;;-145.69;57.19;52216.66;5119707;28;20225;-82
2023/03/19 10:28:23;;;;;;;5.25;2.22;;;;;;;-145.69;58.09;52179.03;5117139;28;20197;-82
2023/03/19 10:30:55;;;;;;;5.35;2.00;;;;;;;-145.69;56.42;52198.81;5117255;28;20212;-81
2023/03/19 10:33:25;;;;;;;5.13;1.77;;;;;;;-145.69;55.78;52202.78;5116998;28;20215;-82
2023/03/19 10:35:58;;;;;;;7.32;1.75;;;;;;;-145.69;52.45;52186.94;5117768;28;20193;-82
2023/03/19 10:38:26;;;;;;;8.35;2.00;;;;;;;-145.69;52.79;52147.34;5120500;28;20198;-82
2023/03/19 10:41:11;;;;;;;3.97;1.98;;;;;;;-145.69;53.83;52186.94;5122813;28;20198;-82
2023/03/19 10:43:40;;;;;;;3.65;1.88;;;;;;;-145.69;57.77;52167.13;5118601;28;20801;-82
2023/03/19 10:46:12;;;;;;;5.53;2.08;;;;;;;-145.69;56.95;52159.22;5123365;28;20225;-83
2023/03/19 10:48:43;;;;;;;4.40;2.03;;;;;;;-145.69;49.97;52173.09;5123027;28;20682;-82
2023/03/19 10:51:15;;;;;;;4.25;1.55;;;;;;;-145.69;52.44;52167.13;5119788;28;20201;-83
2023/03/19 10:53:43;;;;;;;8.98;1.80;;;;;;;-145.69;55.52;52186.94;5117084;28;20198;-84
2023/03/19 10:56:21;;;;;;;3.95;1.70;;;;;;;-145.69;54.51;52179.03;5118139;28;20801;-84
2023/03/19 10:58:59;;;;;;;5.07;1.60;;;;;;;-145.69;64.98;52167.13;5116839;28;20197;-83
2023/03/19 11:01:28;;;;;;;5.88;1.63;;;;;;;-145.69;61.17;52153.28;5098202;28;20598;-83
2023/03/19 11:03:57;;;;;;;5.22;1.65;;;;;;;-145.69;57.38;52194.88;5103028;28;20560;-84
2023/03/19 11:06:26;;;;;;;2.40;1.65;;;;;;;-145.69;55.00;52194.88;5117799;28;20288;-84
2023/03/19 11:08:58;;;;;;;5.07;2.20;;;;;;;-145.69;56.76;52169.13;5117349;28;20640;-83
2023/03/19 11:11:33;;;;;;;4.32;2.30;;;;;;;-145.69;55.64;52192.88;5117042;28;20208;-84
2023/03/19 11:14:11;;;;;;;5.50;2.03;;;;;;;-145.69;54.07;52169.13;5097899;28;20225;-84
2023/03/19 11:16:56;;;;;;;7.57;3.08;;;;;;;-145.69;59.32;52179.03;5096279;28;20644;-84
2023/03/19 11:19:26;;;;;;;6.95;2.13;;;;;;;-145.69;51.71;52163.19;5096674;28;20198;-84